createdAt,value
2023-03-21T00:00:03.049Z,10.89
2023-03-21T00:01:01.892Z,10.88
2023-03-21T00:02:01.815Z,10.88
2023-03-21T00:03:01.889Z,10.88
2023-03-21T00:04:01.828Z,10.87
2023-03-21T00:05:13.308Z,10.87
2023-03-21T00:06:02.904Z,10.87
2023-03-21T00:07:01.846Z,10.86
2023-03-21T00:08:02.701Z,10.86
2023-03-21T00:09:01.803Z,10.85
2023-03-21T00:10:14.407Z,10.84
2023-03-21T00:11:02.737Z,10.84
2023-03-21T00:12:01.783Z,10.83
2023-03-21T00:13:01.771Z,10.82
2023-03-21T00:14:01.687Z,10.81
2023-03-21T00:15:01.707Z,10.81
2023-03-21T00:16:06.683Z,10.80
2023-03-21T00:17:02.752Z,10.79
2023-03-21T00:18:01.671Z,10.78
2023-03-21T00:19:01.772Z,10.77
2023-03-21T00:20:01.882Z,10.76
2023-03-21T00:21:35.649Z,10.76
2023-03-21T00:22:08.091Z,10.75
2023-03-21T00:23:02.680Z,10.75
2023-03-21T00:24:01.646Z,10.74
2023-03-21T00:25:01.801Z,10.74
2023-03-21T00:26:01.672Z,10.73
2023-03-21T00:28:08.323Z,10.72
2023-03-21T00:29:02.609Z,10.72
2023-03-21T00:30:01.684Z,10.72
2023-03-21T00:31:01.583Z,10.73
2023-03-21T00:32:01.623Z,10.73
2023-03-21T00:33:05.928Z,10.73
2023-03-21T00:34:02.538Z,10.74
2023-03-21T00:35:29.450Z,10.74
2023-03-21T00:36:05.396Z,10.75
2023-03-21T00:37:01.486Z,10.75
2023-03-21T00:38:01.492Z,10.75
2023-03-21T00:39:01.537Z,10.75
2023-03-21T00:40:01.655Z,10.74
2023-03-21T00:41:11.050Z,10.74
2023-03-21T00:42:02.410Z,10.73
2023-03-21T00:43:01.378Z,10.72
2023-03-21T00:44:01.469Z,10.71
2023-03-21T00:45:01.416Z,10.70
2023-03-21T00:46:01.415Z,10.69
2023-03-21T00:47:07.670Z,10.68
2023-03-21T00:48:02.539Z,10.67
2023-03-21T00:49:01.446Z,10.67
2023-03-21T00:50:01.370Z,10.66
2023-03-21T00:51:01.431Z,10.66
2023-03-21T00:52:14.700Z,10.65
2023-03-21T00:53:02.413Z,10.64
2023-03-21T00:54:01.246Z,10.64
2023-03-21T00:55:01.265Z,10.64
2023-03-21T00:56:01.250Z,10.63
2023-03-21T00:57:01.238Z,10.63
2023-03-21T00:58:02.548Z,10.63
2023-03-21T00:59:01.270Z,10.63
2023-03-21T01:00:01.318Z,10.63
2023-03-21T01:01:01.242Z,10.63
2023-03-21T01:02:01.234Z,10.63
2023-03-21T01:03:08.541Z,10.62
2023-03-21T01:04:02.248Z,10.62
2023-03-21T01:05:01.138Z,10.61
2023-03-21T01:06:01.122Z,10.61
2023-03-21T01:07:01.138Z,10.61
2023-03-21T01:08:02.941Z,10.60
2023-03-21T01:09:01.118Z,10.60
2023-03-21T01:10:01.193Z,10.60
2023-03-21T01:11:01.149Z,10.59
2023-03-21T01:12:01.108Z,10.59
2023-03-21T01:13:01.102Z,10.59
2023-03-21T01:14:18.584Z,10.58
2023-03-21T01:15:02.067Z,10.58
2023-03-21T01:16:01.213Z,10.58
2023-03-21T01:17:01.099Z,10.57
2023-03-21T01:18:01.036Z,10.56
2023-03-21T01:19:02.100Z,10.55
2023-03-21T01:20:01.063Z,10.55
2023-03-21T01:21:00.995Z,10.54
2023-03-21T01:22:01.072Z,10.53
2023-03-21T01:23:00.992Z,10.53
2023-03-21T01:24:00.978Z,10.52
2023-03-21T01:25:19.213Z,10.52
2023-03-21T01:26:01.990Z,10.52
2023-03-21T01:27:00.962Z,10.52
2023-03-21T01:28:00.955Z,10.52
2023-03-21T01:29:01.077Z,10.52
2023-03-21T01:30:01.046Z,10.51
2023-03-21T01:31:00.948Z,10.51
2023-03-21T01:32:00.886Z,10.51
2023-03-21T01:33:01.022Z,10.51
2023-03-21T01:34:00.921Z,10.51
2023-03-21T01:35:00.877Z,10.51
2023-03-21T01:36:12.358Z,10.51
2023-03-21T01:37:01.894Z,10.51
2023-03-21T01:38:00.852Z,10.52
2023-03-21T01:39:00.909Z,10.52
2023-03-21T01:40:00.768Z,10.52
2023-03-21T01:41:00.763Z,10.52
2023-03-21T01:42:00.804Z,10.52
2023-03-21T01:43:00.855Z,10.52
2023-03-21T01:44:00.751Z,10.52
2023-03-21T01:45:00.799Z,10.52
2023-03-21T01:46:00.771Z,10.52
2023-03-21T01:47:10.483Z,10.52
2023-03-21T01:48:01.869Z,10.51
2023-03-21T01:49:00.738Z,10.51
2023-03-21T01:50:00.747Z,10.51
2023-03-21T01:51:00.693Z,10.51
2023-03-21T01:52:03.649Z,10.50
2023-03-21T01:53:01.670Z,10.50
2023-03-21T01:54:00.694Z,10.49
2023-03-21T01:55:08.228Z,10.49
2023-03-21T01:56:08.129Z,10.48
2023-03-21T01:57:10.137Z,10.48
2023-03-21T01:58:09.569Z,10.48
2023-03-21T01:59:00.608Z,10.47
2023-03-21T02:00:08.108Z,10.47
2023-03-21T02:01:09.485Z,10.47
2023-03-21T02:02:08.293Z,10.47
2023-03-21T02:03:15.118Z,10.46
2023-03-21T02:04:08.227Z,10.46
2023-03-21T02:06:58.530Z,11.50
2023-03-21T02:08:07.216Z,11.08
2023-03-21T02:09:06.003Z,10.80
2023-03-21T02:10:05.570Z,10.63
2023-03-21T02:10:58.447Z,10.54
2023-03-21T02:11:58.491Z,10.48
2023-03-21T02:12:59.162Z,10.44
2023-03-21T02:14:06.150Z,10.42
2023-03-21T02:14:59.430Z,10.41
2023-03-21T02:15:58.460Z,10.40
2023-03-21T02:16:58.435Z,10.39
2023-03-21T02:17:58.358Z,10.39
2023-03-21T02:18:58.367Z,10.39
2023-03-21T02:19:58.340Z,10.39
2023-03-21T02:20:58.373Z,10.38
2023-03-21T02:21:58.424Z,10.38
2023-03-21T02:22:58.370Z,10.38
2023-03-21T02:23:58.290Z,10.38
2023-03-21T02:25:04.278Z,10.38
2023-03-21T02:25:59.359Z,10.38
2023-03-21T02:27:03.901Z,10.38
2023-03-21T02:27:59.245Z,10.38
2023-03-21T02:28:58.305Z,10.37
2023-03-21T02:29:58.279Z,10.37
2023-03-21T02:30:58.904Z,10.37
2023-03-21T02:32:03.469Z,10.37
2023-03-21T02:32:59.223Z,10.37
2023-03-21T02:33:58.161Z,10.37
2023-03-21T02:35:00.585Z,10.37
2023-03-21T02:36:02.990Z,10.37
2023-03-21T02:36:59.144Z,10.36
2023-03-21T02:38:00.582Z,10.36
2023-03-21T02:38:58.165Z,10.36
2023-03-21T02:39:58.244Z,10.36
2023-03-21T02:41:00.330Z,10.36
2023-03-21T02:41:58.168Z,10.36
2023-03-21T02:43:00.996Z,10.35
2023-03-21T02:43:58.068Z,10.35
2023-03-21T02:44:58.168Z,10.35
2023-03-21T02:45:58.116Z,10.34
2023-03-21T02:47:05.459Z,10.34
2023-03-21T02:47:59.088Z,10.34
2023-03-21T02:48:58.069Z,10.34
2023-03-21T02:49:58.083Z,10.34
2023-03-21T02:50:58.032Z,10.34
2023-03-21T02:52:00.246Z,10.34
2023-03-21T02:52:58.964Z,10.34
2023-03-21T02:54:23.780Z,10.34
2023-03-21T02:54:58.998Z,10.34
2023-03-21T02:55:57.936Z,10.34
2023-03-21T02:56:58.026Z,10.34
2023-03-21T02:58:06.966Z,10.34
2023-03-21T02:58:58.920Z,10.33
2023-03-21T03:00:02.460Z,10.33
2023-03-21T03:00:59.014Z,10.33
2023-03-21T03:01:57.896Z,10.32
2023-03-21T03:03:08.739Z,10.31
2023-03-21T03:03:59.002Z,10.31
2023-03-21T03:04:58.759Z,10.30
2023-03-21T03:05:57.839Z,10.29
2023-03-21T03:06:57.874Z,10.29
2023-03-21T03:07:57.876Z,10.28
2023-03-21T03:09:02.631Z,10.28
2023-03-21T03:09:58.797Z,10.28
2023-03-21T03:10:57.808Z,10.28
2023-03-21T03:11:57.806Z,10.27
2023-03-21T03:12:57.819Z,10.27
2023-03-21T03:13:58.221Z,10.27
2023-03-21T03:15:03.566Z,10.27
2023-03-21T03:15:59.501Z,10.27
2023-03-21T03:16:57.768Z,10.27
2023-03-21T03:17:57.786Z,10.27
2023-03-21T03:18:57.728Z,10.27
2023-03-21T03:19:57.759Z,10.27
2023-03-21T03:20:57.784Z,10.27
2023-03-21T03:21:57.625Z,10.27
2023-03-21T03:22:57.809Z,10.28
2023-03-21T03:23:57.674Z,10.28
2023-03-21T03:24:58.585Z,10.28
2023-03-21T03:25:57.657Z,10.28
2023-03-21T03:26:57.608Z,10.28
2023-03-21T03:27:57.658Z,10.28
2023-03-21T03:28:57.622Z,10.28
2023-03-21T03:29:57.577Z,10.28
2023-03-21T03:31:08.762Z,10.28
2023-03-21T03:31:58.613Z,10.28
2023-03-21T03:32:57.579Z,10.27
2023-03-21T03:33:57.560Z,10.27
2023-03-21T03:34:57.558Z,10.26
2023-03-21T03:36:05.074Z,10.25
2023-03-21T03:36:58.535Z,10.25
2023-03-21T03:37:57.543Z,10.24
2023-03-21T03:38:57.544Z,10.23
2023-03-21T03:39:57.494Z,10.23
2023-03-21T03:40:57.459Z,10.22
2023-03-21T03:42:10.265Z,10.22
2023-03-21T03:42:58.492Z,10.21
2023-03-21T03:43:57.402Z,10.21
2023-03-21T03:44:57.430Z,10.21
2023-03-21T03:45:57.431Z,10.20
2023-03-21T03:46:57.519Z,10.20
2023-03-21T03:47:57.778Z,10.20
2023-03-21T03:48:57.429Z,10.19
2023-03-21T03:49:57.391Z,10.19
2023-03-21T03:50:57.386Z,10.19
2023-03-21T03:51:57.377Z,10.19
2023-03-21T03:52:59.856Z,10.19
2023-03-21T03:53:57.375Z,10.18
2023-03-21T03:54:57.344Z,10.18
2023-03-21T03:55:57.320Z,10.18
2023-03-21T03:56:57.316Z,10.17
2023-03-21T03:57:57.309Z,10.17
2023-03-21T03:58:57.303Z,10.17
2023-03-21T03:59:57.314Z,10.17
2023-03-21T04:00:57.270Z,10.16
2023-03-21T04:01:57.301Z,10.16
2023-03-21T04:02:57.324Z,10.16
2023-03-21T04:04:10.626Z,10.16
2023-03-21T04:04:58.220Z,10.16
2023-03-21T04:05:57.222Z,10.16
2023-03-21T04:06:58.134Z,10.16
2023-03-21T04:07:57.210Z,10.16
2023-03-21T04:08:57.449Z,10.16
2023-03-21T04:09:57.251Z,10.16
2023-03-21T04:10:57.313Z,10.16
2023-03-21T04:11:57.146Z,10.16
2023-03-21T04:12:57.178Z,10.15
2023-03-21T04:13:57.127Z,10.15
2023-03-21T04:15:04.906Z,10.15
2023-03-21T04:15:58.148Z,10.15
2023-03-21T04:16:57.085Z,10.15
2023-03-21T04:17:57.102Z,10.15
2023-03-21T04:18:57.040Z,10.15
2023-03-21T04:20:05.462Z,10.14
2023-03-21T04:20:58.070Z,10.14
2023-03-21T04:21:57.033Z,10.14
2023-03-21T04:22:57.035Z,10.14
2023-03-21T04:23:56.989Z,10.14
2023-03-21T04:24:56.956Z,10.13
2023-03-21T04:25:57.457Z,10.13
2023-03-21T04:26:57.025Z,10.13
2023-03-21T04:27:57.019Z,10.13
2023-03-21T04:28:57.054Z,10.13
2023-03-21T04:29:56.984Z,10.13
2023-03-21T04:31:03.807Z,10.13
2023-03-21T04:31:58.070Z,10.13
2023-03-21T04:32:56.980Z,10.13
2023-03-21T04:33:56.876Z,10.13
2023-03-21T04:34:56.956Z,10.13
2023-03-21T04:35:56.889Z,10.13
2023-03-21T04:36:56.832Z,10.13
2023-03-21T04:37:56.861Z,10.13
2023-03-21T04:38:57.095Z,10.13
2023-03-21T04:39:56.877Z,10.13
2023-03-21T04:40:56.833Z,10.12
2023-03-21T04:41:56.801Z,10.12
2023-03-21T04:42:56.736Z,10.12
2023-03-21T04:43:56.719Z,10.12
2023-03-21T04:44:56.743Z,10.12
2023-03-21T04:45:56.756Z,10.12
2023-03-21T04:46:56.728Z,10.12
2023-03-21T04:47:56.701Z,10.13
2023-03-21T04:48:56.746Z,10.13
2023-03-21T04:49:56.706Z,10.13
2023-03-21T04:50:56.666Z,10.13
2023-03-21T04:51:56.724Z,10.13
2023-03-21T04:52:56.646Z,10.13
2023-03-21T04:53:56.634Z,10.13
2023-03-21T04:54:56.698Z,10.13
2023-03-21T04:55:56.695Z,10.13
2023-03-21T04:56:56.588Z,10.12
2023-03-21T04:57:56.604Z,10.12
2023-03-21T04:58:56.624Z,10.12
2023-03-21T04:59:56.670Z,10.12
2023-03-21T05:00:56.541Z,10.11
2023-03-21T05:01:56.595Z,10.11
2023-03-21T05:02:56.518Z,10.11
2023-03-21T05:03:56.876Z,10.10
2023-03-21T05:04:56.613Z,10.10
2023-03-21T05:05:56.649Z,10.10
2023-03-21T05:06:56.566Z,10.10
2023-03-21T05:07:56.583Z,10.10
2023-03-21T05:08:56.676Z,10.10
2023-03-21T05:09:56.568Z,10.10
2023-03-21T05:10:56.453Z,10.10
2023-03-21T05:11:56.596Z,10.10
2023-03-21T05:12:56.427Z,10.10
2023-03-21T05:13:56.932Z,10.10
2023-03-21T05:14:56.533Z,10.10
2023-03-21T05:15:56.549Z,10.10
2023-03-21T05:16:56.543Z,10.11
2023-03-21T05:17:56.451Z,10.11
2023-03-21T05:18:56.382Z,10.11
2023-03-21T05:19:56.686Z,10.12
2023-03-21T05:20:56.391Z,10.12
2023-03-21T05:21:56.354Z,10.12
2023-03-21T05:22:56.333Z,10.12
2023-03-21T05:23:56.326Z,10.12
2023-03-21T05:24:56.416Z,10.12
2023-03-21T05:25:56.374Z,10.12
2023-03-21T05:27:04.254Z,10.12
2023-03-21T05:27:56.417Z,10.12
2023-03-21T05:28:56.420Z,10.13
2023-03-21T05:33:11.543Z,11.20
2023-03-21T05:41:14.692Z,11.19
2023-03-21T05:44:30.852Z,11.20
2023-03-21T05:45:31.052Z,10.78
2023-03-21T05:46:30.840Z,10.50
2023-03-21T05:47:30.900Z,10.35
2023-03-21T05:48:30.750Z,10.26
2023-03-21T05:49:30.731Z,10.21
2023-03-21T05:50:30.712Z,10.18
2023-03-21T05:51:30.654Z,10.17
2023-03-21T05:52:30.663Z,10.16
2023-03-21T05:53:30.742Z,10.15
2023-03-21T05:54:30.681Z,10.15
2023-03-21T05:55:30.641Z,10.15
2023-03-21T05:56:30.640Z,10.15
2023-03-21T05:57:30.593Z,10.15
2023-03-21T05:58:30.619Z,10.15
2023-03-21T05:59:30.603Z,10.15
2023-03-21T06:00:30.834Z,10.15
2023-03-21T06:01:30.806Z,10.15
2023-03-21T06:02:30.657Z,10.15
2023-03-21T06:03:30.693Z,10.15
2023-03-21T06:04:30.546Z,10.15
2023-03-21T06:05:30.544Z,10.15
2023-03-21T06:06:30.644Z,10.15
2023-03-21T06:07:30.537Z,10.15
2023-03-21T06:08:37.958Z,10.15
2023-03-21T06:09:30.416Z,10.15
2023-03-21T06:10:30.402Z,10.15
2023-03-21T06:11:30.425Z,10.14
2023-03-21T06:12:30.422Z,10.15
2023-03-21T06:13:30.556Z,10.15
2023-03-21T06:14:30.356Z,10.15
2023-03-21T06:15:30.582Z,10.15
2023-03-21T06:17:48.359Z,11.22
2023-03-21T06:18:55.805Z,10.80
2023-03-21T06:19:48.281Z,10.52
2023-03-21T06:20:48.281Z,10.36
2023-03-21T06:21:48.274Z,10.27
2023-03-21T06:22:48.346Z,10.22
2023-03-21T06:23:48.255Z,10.19
2023-03-21T06:24:48.243Z,10.18
2023-03-21T06:25:48.294Z,10.17
2023-03-21T06:26:48.251Z,10.16
2023-03-21T06:27:48.192Z,10.17
2023-03-21T06:28:48.174Z,10.17
2023-03-21T06:29:48.176Z,10.17
2023-03-21T06:30:48.146Z,10.17
2023-03-21T06:31:48.253Z,10.18
2023-03-21T06:32:48.194Z,10.19
2023-03-21T06:33:48.156Z,10.19
2023-03-21T06:34:48.158Z,10.20
2023-03-21T06:35:48.159Z,10.20
2023-03-21T06:36:48.113Z,10.21
2023-03-21T06:37:48.084Z,10.22
2023-03-21T06:38:48.118Z,10.23
2023-03-21T06:39:48.088Z,10.23
2023-03-21T06:40:48.051Z,10.24
2023-03-21T06:41:48.147Z,10.25
2023-03-21T06:42:48.042Z,10.25
2023-03-21T06:43:48.038Z,10.26
2023-03-21T06:44:48.021Z,10.27
2023-03-21T06:45:48.018Z,10.27
2023-03-21T06:46:48.068Z,10.28
2023-03-21T06:47:47.999Z,10.28
2023-03-21T06:48:47.956Z,10.28
2023-03-21T06:49:47.970Z,10.29
2023-03-21T06:50:47.967Z,10.29
2023-03-21T06:51:47.924Z,10.30
2023-03-21T06:52:47.925Z,10.30
2023-03-21T06:53:47.919Z,10.31
2023-03-21T06:54:47.961Z,10.31
2023-03-21T06:55:47.933Z,10.32
2023-03-21T06:56:47.885Z,10.33
2023-03-21T06:57:47.905Z,10.33
2023-03-21T06:58:47.872Z,10.34
2023-03-21T06:59:47.846Z,10.34
2023-03-21T07:00:47.869Z,10.35
2023-03-21T07:01:47.844Z,10.36
2023-03-21T07:02:50.681Z,10.37
2023-03-21T07:03:47.797Z,10.37
2023-03-21T07:04:47.814Z,10.38
2023-03-21T07:05:47.807Z,10.39
2023-03-21T07:06:47.784Z,10.40
2023-03-21T07:07:47.771Z,10.40
2023-03-21T07:08:47.782Z,10.41
2023-03-21T07:09:47.735Z,10.42
2023-03-21T07:10:47.725Z,10.42
2023-03-21T07:11:47.746Z,10.43
2023-03-21T07:12:47.767Z,10.43
2023-03-21T07:13:47.748Z,10.44
2023-03-21T07:14:47.693Z,10.44
2023-03-21T07:15:47.680Z,10.45
2023-03-21T07:16:47.727Z,10.46
2023-03-21T07:17:47.648Z,10.46
2023-03-21T07:18:47.655Z,10.47
2023-03-21T07:19:47.631Z,10.48
2023-03-21T07:20:47.633Z,10.49
2023-03-21T07:21:47.660Z,10.49
2023-03-21T07:22:47.616Z,10.50
2023-03-21T07:23:47.585Z,10.51
2023-03-21T07:24:55.957Z,10.52
2023-03-21T07:25:48.615Z,10.52
2023-03-21T07:26:47.565Z,10.53
2023-03-21T07:27:47.546Z,10.54
2023-03-21T07:28:47.539Z,10.54
2023-03-21T07:29:47.526Z,10.55
2023-03-21T07:30:47.506Z,10.55
2023-03-21T07:31:47.580Z,10.56
2023-03-21T07:32:47.489Z,10.56
2023-03-21T07:33:47.520Z,10.57
2023-03-21T07:34:47.481Z,10.58
2023-03-21T07:35:47.589Z,10.59
2023-03-21T07:36:47.490Z,10.59
2023-03-21T07:37:47.439Z,10.60
2023-03-21T07:38:47.428Z,10.61
2023-03-21T07:39:47.408Z,10.62
2023-03-21T07:40:47.444Z,10.62
2023-03-21T07:41:47.445Z,10.63
2023-03-21T07:42:47.412Z,10.64
2023-03-21T07:43:47.418Z,10.65
2023-03-21T07:44:47.425Z,10.66
2023-03-21T07:45:47.471Z,10.67
2023-03-21T07:46:47.364Z,10.67
2023-03-21T07:47:47.393Z,10.68
2023-03-21T07:48:47.362Z,10.69
2023-03-21T07:49:47.320Z,10.70
2023-03-21T07:50:47.444Z,10.70
2023-03-21T07:51:47.376Z,10.71
2023-03-21T07:52:47.342Z,10.72
2023-03-21T07:53:47.304Z,10.72
2023-03-21T07:54:47.321Z,10.73
2023-03-21T07:55:47.291Z,10.74
2023-03-21T07:56:47.349Z,10.74
2023-03-21T07:57:47.290Z,10.75
2023-03-21T07:58:47.269Z,10.75
2023-03-21T07:59:47.293Z,10.76
2023-03-21T08:00:47.222Z,10.76
2023-03-21T08:01:47.232Z,10.77
2023-03-21T08:02:47.306Z,10.77
2023-03-21T08:03:47.228Z,10.78
2023-03-21T08:04:47.288Z,10.79
2023-03-21T08:05:47.222Z,10.79
2023-03-21T08:06:47.297Z,10.80
2023-03-21T08:07:47.184Z,10.80
2023-03-21T08:08:47.183Z,10.81
2023-03-21T08:09:47.124Z,10.82
2023-03-21T08:10:47.135Z,10.82
2023-03-21T08:11:47.133Z,10.83
2023-03-21T08:12:47.130Z,10.84
2023-03-21T08:13:47.116Z,10.84
2023-03-21T08:14:47.076Z,10.85
2023-03-21T08:15:47.070Z,10.86
2023-03-21T08:16:47.285Z,10.86
2023-03-21T08:17:47.111Z,10.87
2023-03-21T08:18:47.025Z,10.88
2023-03-21T08:19:47.058Z,10.89
2023-03-21T08:20:47.007Z,10.89
2023-03-21T08:21:46.985Z,10.90
2023-03-21T08:22:47.009Z,10.91
2023-03-21T08:23:47.002Z,10.92
2023-03-21T08:24:46.991Z,10.92
2023-03-21T08:25:46.976Z,10.93
2023-03-21T08:26:46.968Z,10.94
2023-03-21T08:27:46.962Z,10.95
2023-03-21T08:28:46.949Z,10.96
2023-03-21T08:29:46.954Z,10.97
2023-03-21T08:30:46.981Z,10.98
2023-03-21T08:31:46.902Z,10.99
2023-03-21T08:32:46.957Z,11.00
2023-03-21T08:33:46.993Z,11.01
2023-03-21T08:34:46.884Z,11.02
2023-03-21T08:35:47.116Z,11.03
2023-03-21T08:36:46.849Z,11.03
2023-03-21T08:37:46.914Z,11.04
2023-03-21T08:38:46.816Z,11.06
2023-03-21T08:39:46.907Z,11.07
2023-03-21T08:40:46.773Z,11.07
2023-03-21T08:41:46.830Z,11.08
2023-03-21T08:42:46.779Z,11.09
2023-03-21T08:43:46.782Z,11.10
2023-03-21T08:44:46.754Z,11.11
2023-03-21T08:45:46.814Z,11.12
2023-03-21T08:46:46.734Z,11.13
2023-03-21T08:47:46.865Z,11.14
2023-03-21T08:48:46.752Z,11.15
2023-03-21T08:49:46.708Z,11.16
2023-03-21T08:50:46.787Z,11.17
2023-03-21T08:51:46.661Z,11.18
2023-03-21T08:52:46.714Z,11.19
2023-03-21T08:53:46.662Z,11.20
2023-03-21T08:54:46.658Z,11.21
2023-03-21T08:55:46.669Z,11.22
2023-03-21T08:56:46.638Z,11.23
2023-03-21T08:57:46.598Z,11.24
2023-03-21T08:58:46.644Z,11.25
2023-03-21T08:59:46.593Z,11.25
2023-03-21T09:00:46.603Z,11.26
2023-03-21T09:01:46.613Z,11.27
2023-03-21T09:02:46.657Z,11.28
2023-03-21T09:03:46.547Z,11.29
2023-03-21T09:04:46.585Z,11.30
2023-03-21T09:05:46.533Z,11.31
2023-03-21T09:06:46.513Z,11.32
2023-03-21T09:07:46.564Z,11.33
2023-03-21T09:08:46.530Z,11.34
2023-03-21T09:09:53.484Z,11.35
2023-03-21T09:10:47.459Z,11.36
2023-03-21T09:11:46.485Z,11.36
2023-03-21T09:12:46.524Z,11.37
2023-03-21T09:13:46.487Z,11.38
2023-03-21T09:14:46.453Z,11.39
2023-03-21T09:15:46.505Z,11.40
2023-03-21T09:16:46.458Z,11.41
2023-03-21T09:17:46.449Z,11.41
2023-03-21T09:18:46.491Z,11.42
2023-03-21T09:19:46.407Z,11.43
2023-03-21T09:20:46.357Z,11.44
2023-03-21T09:21:46.349Z,11.45
2023-03-21T09:22:46.379Z,11.46
2023-03-21T09:23:46.356Z,11.47
2023-03-21T09:24:46.383Z,11.48
2023-03-21T09:25:46.335Z,11.50
2023-03-21T09:26:46.371Z,11.51
2023-03-21T09:27:46.331Z,11.52
2023-03-21T09:28:46.307Z,11.53
2023-03-21T09:29:46.318Z,11.54
2023-03-21T09:30:46.332Z,11.55
2023-03-21T09:31:46.274Z,11.56
2023-03-21T09:32:46.244Z,11.57
2023-03-21T09:33:46.246Z,11.58
2023-03-21T09:34:46.262Z,11.59
2023-03-21T09:35:46.275Z,11.60
2023-03-21T09:36:46.194Z,11.61
2023-03-21T09:37:46.218Z,11.62
2023-03-21T09:38:46.202Z,11.63
2023-03-21T09:39:46.192Z,11.65
2023-03-21T09:40:46.141Z,11.66
2023-03-21T09:41:46.284Z,11.67
2023-03-21T09:42:46.123Z,11.69
2023-03-21T09:43:46.149Z,11.70
2023-03-21T09:44:46.116Z,11.72
2023-03-21T09:45:46.141Z,11.73
2023-03-21T09:46:46.144Z,11.74
2023-03-21T09:47:46.091Z,11.76
2023-03-21T09:48:54.461Z,11.77
2023-03-21T09:49:47.049Z,11.79
2023-03-21T09:50:46.154Z,11.80
2023-03-21T09:51:46.085Z,11.82
2023-03-21T09:52:46.043Z,11.83
2023-03-21T09:53:45.996Z,11.85
2023-03-21T09:54:46.000Z,11.87
2023-03-21T09:55:46.040Z,11.88
2023-03-21T09:56:46.060Z,11.89
2023-03-21T09:57:45.956Z,11.90
2023-03-21T09:58:46.073Z,11.91
2023-03-21T09:59:45.966Z,11.92
2023-03-21T10:00:46.020Z,11.93
2023-03-21T10:01:45.943Z,11.94
2023-03-21T10:02:45.906Z,11.96
2023-03-21T10:03:46.093Z,11.97
2023-03-21T10:04:45.985Z,11.98
2023-03-21T10:05:45.974Z,11.99
2023-03-21T10:06:45.889Z,12.00
2023-03-21T10:07:45.891Z,12.01
2023-03-21T10:08:45.920Z,12.02
2023-03-21T10:09:45.859Z,12.03
2023-03-21T10:10:45.815Z,12.04
2023-03-21T10:11:45.825Z,12.06
2023-03-21T10:12:45.818Z,12.07
2023-03-21T10:13:45.841Z,12.08
2023-03-21T10:14:45.856Z,12.09
2023-03-21T10:15:45.821Z,12.10
2023-03-21T10:16:45.834Z,12.11
2023-03-21T10:17:45.777Z,12.12
2023-03-21T10:18:45.745Z,12.14
2023-03-21T10:19:45.713Z,12.15
2023-03-21T10:20:45.682Z,12.16
2023-03-21T10:22:00.183Z,12.17
2023-03-21T10:22:46.663Z,12.18
2023-03-21T10:23:45.644Z,12.20
2023-03-21T10:24:45.660Z,12.21
2023-03-21T10:25:45.654Z,12.22
2023-03-21T10:26:45.600Z,12.23
2023-03-21T10:27:45.600Z,12.24
2023-03-21T10:28:52.752Z,12.25
2023-03-21T10:29:46.600Z,12.26
2023-03-21T10:30:45.569Z,12.28
2023-03-21T10:31:45.627Z,12.29
2023-03-21T10:32:45.604Z,12.31
2023-03-21T10:33:45.534Z,12.32
2023-03-21T10:34:45.549Z,12.34
2023-03-21T10:35:45.550Z,12.35
2023-03-21T10:36:45.500Z,12.36
2023-03-21T10:37:45.572Z,12.38
2023-03-21T10:38:45.480Z,12.39
2023-03-21T10:39:45.483Z,12.40
2023-03-21T10:40:45.459Z,12.41
2023-03-21T10:41:45.451Z,12.42
2023-03-21T10:42:45.472Z,12.43
2023-03-21T10:43:45.422Z,12.44
2023-03-21T10:44:45.429Z,12.45
2023-03-21T10:45:45.444Z,12.46
2023-03-21T10:46:45.611Z,12.47
2023-03-21T10:47:45.619Z,12.49
2023-03-21T10:48:45.470Z,12.50
2023-03-21T10:50:06.243Z,12.51
2023-03-21T10:50:46.419Z,12.52
2023-03-21T10:51:46.272Z,12.53
2023-03-21T10:52:45.447Z,12.54
2023-03-21T10:53:45.327Z,12.55
2023-03-21T10:54:45.324Z,12.56
2023-03-21T10:55:45.323Z,12.57
2023-03-21T10:56:45.281Z,12.58
2023-03-21T10:57:45.269Z,12.59
2023-03-21T10:58:45.263Z,12.60
2023-03-21T10:59:45.248Z,12.62
2023-03-21T11:00:45.418Z,12.63
2023-03-21T11:01:45.272Z,12.64
2023-03-21T11:02:45.250Z,12.65
2023-03-21T11:03:45.224Z,12.66
2023-03-21T11:04:45.206Z,12.67
2023-03-21T11:05:45.214Z,12.68
2023-03-21T11:06:45.294Z,12.69
2023-03-21T11:07:45.179Z,12.70
2023-03-21T11:08:45.178Z,12.72
2023-03-21T11:09:45.168Z,12.73
2023-03-21T11:10:45.131Z,12.74
2023-03-21T11:11:45.134Z,12.75
2023-03-21T11:12:45.111Z,12.77
2023-03-21T11:13:45.148Z,12.78
2023-03-21T11:14:45.093Z,12.79
2023-03-21T11:15:45.096Z,12.80
2023-03-21T11:16:45.087Z,12.80
2023-03-21T11:17:45.063Z,12.81
2023-03-21T11:18:45.054Z,12.82
2023-03-21T11:19:45.049Z,12.83
2023-03-21T11:20:45.064Z,12.84
2023-03-21T11:21:45.028Z,12.85
2023-03-21T11:22:45.007Z,12.86
2023-03-21T11:23:44.994Z,12.87
2023-03-21T11:24:44.993Z,12.88
2023-03-21T11:25:45.009Z,12.90
2023-03-21T11:26:45.004Z,12.91
2023-03-21T11:27:44.975Z,12.92
2023-03-21T11:28:45.039Z,12.93
2023-03-21T11:29:44.988Z,12.95
2023-03-21T11:30:45.028Z,12.96
2023-03-21T11:31:44.993Z,12.97
2023-03-21T11:32:44.957Z,12.98
2023-03-21T11:33:44.945Z,13.00
2023-03-21T11:34:44.899Z,13.01
2023-03-21T11:35:44.937Z,13.02
2023-03-21T11:36:44.882Z,13.03
2023-03-21T11:37:47.360Z,13.03
2023-03-21T11:38:45.310Z,13.04
2023-03-21T11:39:44.961Z,13.05
2023-03-21T11:40:44.908Z,13.06
2023-03-21T11:41:44.816Z,13.07
2023-03-21T11:42:44.945Z,13.08
2023-03-21T11:43:44.831Z,13.09
2023-03-21T11:44:44.850Z,13.10
2023-03-21T11:45:44.853Z,13.12
2023-03-21T11:46:44.791Z,13.13
2023-03-21T11:47:44.865Z,13.14
2023-03-21T11:48:44.785Z,13.15
2023-03-21T11:49:44.756Z,13.16
2023-03-21T11:50:44.861Z,13.17
2023-03-21T11:51:44.738Z,13.19
2023-03-21T11:52:44.709Z,13.20
2023-03-21T11:53:44.681Z,13.21
2023-03-21T11:54:44.676Z,13.22
2023-03-21T11:55:44.664Z,13.23
2023-03-21T11:56:44.665Z,13.25
2023-03-21T11:57:44.684Z,13.26
2023-03-21T11:58:45.162Z,13.27
2023-03-21T11:59:44.639Z,13.28
2023-03-21T12:00:44.634Z,13.28
2023-03-21T12:01:44.626Z,13.29
2023-03-21T12:02:44.640Z,13.29
2023-03-21T12:03:48.295Z,13.30
2023-03-21T12:04:44.637Z,13.31
2023-03-21T12:05:44.876Z,13.32
2023-03-21T12:06:44.630Z,13.32
2023-03-21T12:07:44.728Z,13.33
2023-03-21T12:08:52.967Z,13.34
2023-03-21T12:09:54.354Z,13.35
2023-03-21T12:10:44.570Z,13.36
2023-03-21T12:11:44.564Z,13.36
2023-03-21T12:12:44.549Z,13.37
2023-03-21T12:13:44.520Z,13.38
2023-03-21T12:14:44.752Z,13.38
2023-03-21T12:17:02.467Z,14.49
2023-03-21T12:18:11.034Z,14.07
2023-03-21T12:19:02.465Z,13.80
2023-03-21T12:20:02.441Z,13.65
2023-03-21T12:21:02.383Z,13.57
2023-03-21T12:22:02.370Z,13.53
2023-03-21T12:23:02.387Z,13.51
2023-03-21T12:24:02.369Z,13.51
2023-03-21T12:25:02.320Z,13.50
2023-03-21T12:26:03.007Z,13.50
2023-03-21T12:27:02.344Z,13.51
2023-03-21T12:28:02.994Z,13.51
2023-03-21T12:29:02.398Z,13.52
2023-03-21T12:30:02.309Z,13.52
2023-03-21T12:31:02.305Z,13.53
2023-03-21T12:32:02.226Z,13.53
2023-03-21T12:33:02.316Z,13.54
2023-03-21T12:34:02.281Z,13.54
2023-03-21T12:35:02.288Z,13.55
2023-03-21T12:36:02.406Z,13.55
2023-03-21T12:37:02.194Z,13.56
2023-03-21T12:38:02.196Z,13.57
2023-03-21T12:39:02.226Z,13.58
2023-03-21T12:40:02.109Z,13.59
2023-03-21T12:41:02.162Z,13.60
2023-03-21T12:42:02.125Z,13.61
2023-03-21T12:43:02.132Z,13.62
2023-03-21T12:44:02.082Z,13.63
2023-03-21T12:45:04.107Z,13.64
2023-03-21T12:46:02.123Z,13.65
2023-03-21T12:47:02.214Z,13.65
2023-03-21T12:48:02.191Z,13.66
2023-03-21T12:49:02.642Z,13.67
2023-03-21T12:50:01.986Z,13.67
2023-03-21T12:51:02.004Z,13.68
2023-03-21T12:52:02.074Z,13.69
2023-03-21T12:53:02.104Z,13.69
2023-03-21T12:54:02.049Z,13.70
2023-03-21T12:55:01.955Z,13.70
2023-03-21T12:56:01.982Z,13.71
2023-03-21T12:57:01.971Z,13.72
2023-03-21T12:58:01.973Z,13.73
2023-03-21T12:59:01.972Z,13.74
2023-03-21T13:00:01.924Z,13.75
2023-03-21T13:01:01.945Z,13.76
2023-03-21T13:02:01.942Z,13.77
2023-03-21T13:03:01.869Z,13.78
2023-03-21T13:04:01.913Z,13.79
2023-03-21T13:05:01.879Z,13.80
2023-03-21T13:06:01.909Z,13.80
2023-03-21T13:07:01.827Z,13.80
2023-03-21T13:08:01.816Z,13.81
2023-03-21T13:09:01.822Z,13.81
2023-03-21T13:10:01.802Z,13.81